sensor_id;sensor_type;location;lat;lon;timestamp;pressure;altitude;pressure_sealevel;temperature;humidity
55932;BME280;41837;55.700;37.984;2023-06-14T00:01:10;100480.16;;;8.48;100.00
55932;BME280;41837;55.700;37.984;2023-06-14T00:03:39;100479.38;;;8.43;100.00
55932;BME280;41837;55.700;37.984;2023-06-14T00:06:05;100483.72;;;8.44;100.00
55932;BME280;41837;55.700;37.984;2023-06-14T00:08:32;100482.00;;;8.41;100.00
55932;BME280;41837;55.700;37.984;2023-06-14T00:10:57;100480.22;;;8.45;100.00
55932;BME280;41837;55.700;37.984;2023-06-14T00:13:24;100481.22;;;8.37;100.00
55932;BME280;41837;55.700;37.984;2023-06-14T00:15:50;100487.41;;;8.33;100.00
55932;BME280;41837;55.700;37.984;2023-06-14T00:18:22;100484.84;;;8.30;100.00
55932;BME280;41837;55.700;37.984;2023-06-14T00:20:52;100483.91;;;8.33;100.00
55932;BME280;41837;55.700;37.984;2023-06-14T00:23:19;100481.84;;;8.50;100.00
55932;BME280;41837;55.700;37.984;2023-06-14T00:25:45;100472.00;;;8.62;100.00
55932;BME280;41837;55.700;37.984;2023-06-14T00:28:12;100473.53;;;8.31;100.00
55932;BME280;41837;55.700;37.984;2023-06-14T00:30:38;100478.13;;;8.20;100.00
55932;BME280;41837;55.700;37.984;2023-06-14T00:33:04;100473.09;;;8.11;100.00
55932;BME280;41837;55.700;37.984;2023-06-14T00:35:30;100471.97;;;8.22;100.00
55932;BME280;41837;55.700;37.984;2023-06-14T00:37:57;100477.09;;;8.27;100.00
55932;BME280;41837;55.700;37.984;2023-06-14T00:40:23;100471.13;;;8.22;100.00
55932;BME280;41837;55.700;37.984;2023-06-14T00:42:50;100469.81;;;8.01;100.00
55932;BME280;41837;55.700;37.984;2023-06-14T00:45:16;100468.09;;;8.01;100.00
55932;BME280;41837;55.700;37.984;2023-06-14T00:47:43;100478.84;;;7.86;100.00
55932;BME280;41837;55.700;37.984;2023-06-14T00:50:10;100475.28;;;7.89;100.00
55932;BME280;41837;55.700;37.984;2023-06-14T00:52:37;100483.59;;;8.06;100.00
55932;BME280;41837;55.700;37.984;2023-06-14T00:55:04;100480.06;;;8.10;100.00
55932;BME280;41837;55.700;37.984;2023-06-14T00:57:32;100486.09;;;8.12;100.00
55932;BME280;41837;55.700;37.984;2023-06-14T00:59:58;100475.53;;;8.20;100.00
55932;BME280;41837;55.700;37.984;2023-06-14T01:02:26;100475.31;;;8.29;100.00
55932;BME280;41837;55.700;37.984;2023-06-14T01:04:53;100472.06;;;8.58;100.00
55932;BME280;41837;55.700;37.984;2023-06-14T01:15:26;100469.47;;;9.62;100.00
55932;BME280;41837;55.700;37.984;2023-06-14T01:17:54;100461.88;;;10.15;100.00
55932;BME280;41837;55.700;37.984;2023-06-14T01:20:31;100462.53;;;10.22;100.00
55932;BME280;41837;55.700;37.984;2023-06-14T01:22:58;100453.91;;;10.48;100.00
55932;BME280;41837;55.700;37.984;2023-06-14T01:25:25;100453.72;;;10.81;100.00
55932;BME280;41837;55.700;37.984;2023-06-14T01:30:21;100447.66;;;11.32;100.00
55932;BME280;41837;55.700;37.984;2023-06-14T01:32:49;100447.25;;;11.43;100.00
55932;BME280;41837;55.700;37.984;2023-06-14T01:35:19;100447.47;;;11.86;100.00
55932;BME280;41837;55.700;37.984;2023-06-14T01:37:47;100446.28;;;11.94;97.76
55932;BME280;41837;55.700;37.984;2023-06-14T01:40:15;100448.34;;;12.10;96.69
55932;BME280;41837;55.700;37.984;2023-06-14T01:42:44;100448.72;;;12.23;96.57
55932;BME280;41837;55.700;37.984;2023-06-14T01:45:12;100449.53;;;12.47;95.02
55932;BME280;41837;55.700;37.984;2023-06-14T01:47:38;100449.63;;;12.88;93.17
55932;BME280;41837;55.700;37.984;2023-06-14T01:50:05;100436.38;;;13.12;89.68
55932;BME280;41837;55.700;37.984;2023-06-14T01:52:31;100436.25;;;13.56;86.75
55932;BME280;41837;55.700;37.984;2023-06-14T01:54:58;100435.38;;;13.76;86.05
55932;BME280;41837;55.700;37.984;2023-06-14T01:57:25;100436.16;;;14.16;83.73
55932;BME280;41837;55.700;37.984;2023-06-14T01:59:52;100430.41;;;14.44;81.18
55932;BME280;41837;55.700;37.984;2023-06-14T02:02:19;100429.06;;;14.73;79.17
55932;BME280;41837;55.700;37.984;2023-06-14T02:04:45;100435.56;;;14.84;77.36
55932;BME280;41837;55.700;37.984;2023-06-14T02:07:14;100432.09;;;15.01;76.65
55932;BME280;41837;55.700;37.984;2023-06-14T02:09:41;100430.09;;;15.39;75.73
55932;BME280;41837;55.700;37.984;2023-06-14T02:12:08;100428.13;;;15.60;73.84
55932;BME280;41837;55.700;37.984;2023-06-14T02:14:35;100426.84;;;16.01;71.98
55932;BME280;41837;55.700;37.984;2023-06-14T02:17:01;100425.50;;;16.41;69.84
55932;BME280;41837;55.700;37.984;2023-06-14T02:19:28;100430.25;;;16.03;70.15
55932;BME280;41837;55.700;37.984;2023-06-14T02:21:54;100426.47;;;16.71;68.40
55932;BME280;41837;55.700;37.984;2023-06-14T02:24:20;100431.19;;;16.80;67.26
55932;BME280;41837;55.700;37.984;2023-06-14T02:26:47;100426.63;;;17.28;64.40
55932;BME280;41837;55.700;37.984;2023-06-14T02:29:14;100416.09;;;16.98;64.99
55932;BME280;41837;55.700;37.984;2023-06-14T02:31:41;100421.19;;;16.71;65.43
55932;BME280;41837;55.700;37.984;2023-06-14T02:34:07;100430.78;;;17.18;64.15
55932;BME280;41837;55.700;37.984;2023-06-14T02:36:36;100425.88;;;17.69;64.07
55932;BME280;41837;55.700;37.984;2023-06-14T02:39:08;100426.81;;;17.97;62.20
55932;BME280;41837;55.700;37.984;2023-06-14T02:41:38;100427.84;;;18.09;62.54
55932;BME280;41837;55.700;37.984;2023-06-14T02:44:04;100432.47;;;18.20;61.11
55932;BME280;41837;55.700;37.984;2023-06-14T02:46:32;100433.75;;;17.85;61.08
55932;BME280;41837;55.700;37.984;2023-06-14T02:48:58;100433.22;;;18.22;60.76
55932;BME280;41837;55.700;37.984;2023-06-14T02:51:25;100436.50;;;18.40;58.49
55932;BME280;41837;55.700;37.984;2023-06-14T02:53:52;100432.75;;;18.70;58.63
55932;BME280;41837;55.700;37.984;2023-06-14T02:56:18;100431.78;;;18.58;59.24
55932;BME280;41837;55.700;37.984;2023-06-14T02:58:46;100436.56;;;18.93;58.41
55932;BME280;41837;55.700;37.984;2023-06-14T03:01:15;100437.66;;;19.03;58.00
55932;BME280;41837;55.700;37.984;2023-06-14T03:03:41;100435.41;;;18.70;58.64
55932;BME280;41837;55.700;37.984;2023-06-14T03:06:08;100427.78;;;19.95;55.25
55932;BME280;41837;55.700;37.984;2023-06-14T03:08:36;100431.84;;;19.49;54.78
55932;BME280;41837;55.700;37.984;2023-06-14T03:11:09;100427.81;;;19.69;54.88
55932;BME280;41837;55.700;37.984;2023-06-14T03:13:36;100432.03;;;19.20;54.97
55932;BME280;41837;55.700;37.984;2023-06-14T03:16:04;100428.22;;;19.12;55.80
55932;BME280;41837;55.700;37.984;2023-06-14T03:18:34;100430.94;;;20.13;53.68
55932;BME280;41837;55.700;37.984;2023-06-14T03:21:02;100431.44;;;20.18;53.08
55932;BME280;41837;55.700;37.984;2023-06-14T03:23:30;100424.66;;;20.38;52.19
55932;BME280;41837;55.700;37.984;2023-06-14T03:25:57;100431.63;;;20.52;52.61
55932;BME280;41837;55.700;37.984;2023-06-14T03:28:24;100429.97;;;21.33;50.98
55932;BME280;41837;55.700;37.984;2023-06-14T03:30:51;100425.78;;;20.95;51.01
55932;BME280;41837;55.700;37.984;2023-06-14T03:33:17;100424.53;;;21.23;50.46
55932;BME280;41837;55.700;37.984;2023-06-14T03:35:44;100420.94;;;22.04;49.51
55932;BME280;41837;55.700;37.984;2023-06-14T03:38:10;100420.50;;;22.42;47.67
55932;BME280;41837;55.700;37.984;2023-06-14T03:40:37;100423.63;;;22.47;47.74
55932;BME280;41837;55.700;37.984;2023-06-14T03:43:05;100417.03;;;22.63;47.05
55932;BME280;41837;55.700;37.984;2023-06-14T03:45:32;100420.53;;;22.63;46.50
55932;BME280;41837;55.700;37.984;2023-06-14T03:47:59;100423.59;;;22.04;47.69
55932;BME280;41837;55.700;37.984;2023-06-14T03:50:28;100423.66;;;22.25;47.77
55932;BME280;41837;55.700;37.984;2023-06-14T03:52:54;100420.50;;;22.75;47.29
55932;BME280;41837;55.700;37.984;2023-06-14T03:55:22;100421.13;;;22.67;46.94
55932;BME280;41837;55.700;37.984;2023-06-14T03:57:51;100425.25;;;22.92;45.97
55932;BME280;41837;55.700;37.984;2023-06-14T04:00:18;100425.25;;;22.92;44.65
55932;BME280;41837;55.700;37.984;2023-06-14T04:02:44;100424.22;;;23.04;44.47
55932;BME280;41837;55.700;37.984;2023-06-14T04:05:10;100413.50;;;23.16;45.85
55932;BME280;41837;55.700;37.984;2023-06-14T04:07:42;100416.16;;;23.37;45.81
55932;BME280;41837;55.700;37.984;2023-06-14T04:10:15;100424.06;;;23.48;42.25
55932;BME280;41837;55.700;37.984;2023-06-14T04:12:42;100423.66;;;22.68;44.32
55932;BME280;41837;55.700;37.984;2023-06-14T04:15:09;100419.03;;;22.70;44.24
55932;BME280;41837;55.700;37.984;2023-06-14T04:17:36;100420.97;;;22.80;44.29
55932;BME280;41837;55.700;37.984;2023-06-14T04:20:05;100419.47;;;23.08;43.33
55932;BME280;41837;55.700;37.984;2023-06-14T04:22:33;100406.28;;;23.58;43.38
55932;BME280;41837;55.700;37.984;2023-06-14T04:25:00;100416.16;;;23.98;42.60
55932;BME280;41837;55.700;37.984;2023-06-14T04:27:29;100412.94;;;23.74;40.99
55932;BME280;41837;55.700;37.984;2023-06-14T04:29:59;100421.41;;;23.48;42.03
55932;BME280;41837;55.700;37.984;2023-06-14T04:32:36;100415.34;;;24.37;41.15
55932;BME280;41837;55.700;37.984;2023-06-14T04:35:08;100417.19;;;25.05;39.92
55932;BME280;41837;55.700;37.984;2023-06-14T04:37:35;100399.34;;;24.47;41.23
55932;BME280;41837;55.700;37.984;2023-06-14T04:40:07;100398.06;;;24.12;40.29
55932;BME280;41837;55.700;37.984;2023-06-14T04:42:34;100402.84;;;24.47;40.52
55932;BME280;41837;55.700;37.984;2023-06-14T04:45:06;100394.53;;;23.71;40.75
55932;BME280;41837;55.700;37.984;2023-06-14T04:47:33;100406.66;;;24.45;40.41
55932;BME280;41837;55.700;37.984;2023-06-14T04:50:00;100411.25;;;24.04;41.08
55932;BME280;41837;55.700;37.984;2023-06-14T04:52:30;100405.22;;;24.21;41.09
55932;BME280;41837;55.700;37.984;2023-06-14T04:54:58;100402.81;;;23.98;40.51
55932;BME280;41837;55.700;37.984;2023-06-14T04:57:24;100399.66;;;24.63;40.28
55932;BME280;41837;55.700;37.984;2023-06-14T04:59:55;100405.53;;;24.47;40.44
55932;BME280;41837;55.700;37.984;2023-06-14T05:02:22;100405.47;;;25.25;39.25
55932;BME280;41837;55.700;37.984;2023-06-14T05:05:05;100407.28;;;23.98;42.09
55932;BME280;41837;55.700;37.984;2023-06-14T05:07:37;100395.34;;;25.19;40.04
55932;BME280;41837;55.700;37.984;2023-06-14T05:10:03;100391.88;;;24.80;38.73
55932;BME280;41837;55.700;37.984;2023-06-14T05:12:30;100403.72;;;25.54;39.40
55932;BME280;41837;55.700;37.984;2023-06-14T05:15:16;100404.13;;;26.14;37.87
55932;BME280;41837;55.700;37.984;2023-06-14T05:17:42;100401.38;;;26.78;37.14
55932;BME280;41837;55.700;37.984;2023-06-14T05:20:09;100403.53;;;25.93;37.51
55932;BME280;41837;55.700;37.984;2023-06-14T05:22:36;100401.13;;;25.34;37.91
55932;BME280;41837;55.700;37.984;2023-06-14T05:25:02;100406.09;;;25.57;38.09
55932;BME280;41837;55.700;37.984;2023-06-14T05:27:29;100403.34;;;25.39;37.68
55932;BME280;41837;55.700;37.984;2023-06-14T05:29:55;100393.63;;;26.03;36.33
55932;BME280;41837;55.700;37.984;2023-06-14T05:32:24;100396.34;;;25.08;37.22
55932;BME280;41837;55.700;37.984;2023-06-14T05:34:50;100393.56;;;26.49;36.16
55932;BME280;41837;55.700;37.984;2023-06-14T05:37:16;100399.41;;;25.71;36.19
55932;BME280;41837;55.700;37.984;2023-06-14T05:39:43;100391.31;;;25.05;35.97
55932;BME280;41837;55.700;37.984;2023-06-14T05:42:09;100394.56;;;24.89;34.99
55932;BME280;41837;55.700;37.984;2023-06-14T05:44:37;100405.13;;;24.32;36.99
55932;BME280;41837;55.700;37.984;2023-06-14T05:47:03;100403.56;;;24.39;36.62
55932;BME280;41837;55.700;37.984;2023-06-14T05:49:29;100396.19;;;25.10;35.69
55932;BME280;41837;55.700;37.984;2023-06-14T05:51:55;100401.47;;;24.92;36.56
55932;BME280;41837;55.700;37.984;2023-06-14T05:54:21;100397.97;;;24.72;35.23
55932;BME280;41837;55.700;37.984;2023-06-14T05:56:47;100407.78;;;24.91;35.85
55932;BME280;41837;55.700;37.984;2023-06-14T05:59:14;100397.94;;;24.43;34.95
55932;BME280;41837;55.700;37.984;2023-06-14T06:01:40;100411.97;;;24.25;35.04
55932;BME280;41837;55.700;37.984;2023-06-14T06:04:07;100408.78;;;24.41;35.52
55932;BME280;41837;55.700;37.984;2023-06-14T06:06:34;100412.69;;;24.27;35.63
55932;BME280;41837;55.700;37.984;2023-06-14T06:09:01;100407.06;;;24.40;35.47
55932;BME280;41837;55.700;37.984;2023-06-14T06:11:28;100401.31;;;26.16;34.94
55932;BME280;41837;55.700;37.984;2023-06-14T06:13:54;100412.53;;;25.64;34.61
55932;BME280;41837;55.700;37.984;2023-06-14T06:16:20;100406.78;;;25.96;34.38
55932;BME280;41837;55.700;37.984;2023-06-14T06:18:46;100401.69;;;26.39;32.39
55932;BME280;41837;55.700;37.984;2023-06-14T06:21:12;100408.38;;;24.75;33.41
55932;BME280;41837;55.700;37.984;2023-06-14T06:23:39;100417.56;;;24.02;35.53
55932;BME280;41837;55.700;37.984;2023-06-14T06:26:06;100401.56;;;25.10;33.47
55932;BME280;41837;55.700;37.984;2023-06-14T06:28:32;100403.06;;;25.32;33.95
55932;BME280;41837;55.700;37.984;2023-06-14T06:30:58;100416.81;;;24.61;34.70
55932;BME280;41837;55.700;37.984;2023-06-14T06:33:25;100397.94;;;24.91;32.67
55932;BME280;41837;55.700;37.984;2023-06-14T06:35:51;100403.28;;;24.33;33.30
55932;BME280;41837;55.700;37.984;2023-06-14T06:38:18;100403.31;;;24.72;34.40
55932;BME280;41837;55.700;37.984;2023-06-14T06:40:45;100403.66;;;24.09;35.11
55932;BME280;41837;55.700;37.984;2023-06-14T06:43:12;100397.00;;;24.63;33.91
55932;BME280;41837;55.700;37.984;2023-06-14T06:45:47;100392.44;;;24.93;32.76
55932;BME280;41837;55.700;37.984;2023-06-14T06:48:13;100388.56;;;26.00;31.66
55932;BME280;41837;55.700;37.984;2023-06-14T06:50:39;100397.44;;;25.35;33.33
55932;BME280;41837;55.700;37.984;2023-06-14T06:53:06;100406.22;;;25.08;32.99
55932;BME280;41837;55.700;37.984;2023-06-14T06:55:32;100399.06;;;24.89;33.64
55932;BME280;41837;55.700;37.984;2023-06-14T06:57:59;100395.66;;;25.26;33.31
55932;BME280;41837;55.700;37.984;2023-06-14T07:00:26;100390.28;;;25.16;33.00
55932;BME280;41837;55.700;37.984;2023-06-14T07:02:53;100393.13;;;25.05;34.70
55932;BME280;41837;55.700;37.984;2023-06-14T07:05:20;100394.41;;;24.32;35.87
55932;BME280;41837;55.700;37.984;2023-06-14T07:07:47;100391.88;;;24.99;34.20
55932;BME280;41837;55.700;37.984;2023-06-14T07:10:13;100391.06;;;24.79;34.01
55932;BME280;41837;55.700;37.984;2023-06-14T07:12:39;100389.94;;;24.43;33.72
55932;BME280;41837;55.700;37.984;2023-06-14T07:15:09;100386.00;;;24.56;32.29
55932;BME280;41837;55.700;37.984;2023-06-14T07:17:35;100389.09;;;24.71;34.11
55932;BME280;41837;55.700;37.984;2023-06-14T07:20:03;100387.41;;;24.61;33.76
55932;BME280;41837;55.700;37.984;2023-06-14T07:22:34;100384.16;;;24.28;32.96
55932;BME280;41837;55.700;37.984;2023-06-14T07:25:01;100384.72;;;24.80;33.11
55932;BME280;41837;55.700;37.984;2023-06-14T07:27:27;100388.22;;;25.47;31.87
55932;BME280;41837;55.700;37.984;2023-06-14T07:29:55;100381.31;;;25.07;31.90
55932;BME280;41837;55.700;37.984;2023-06-14T07:32:21;100379.66;;;24.77;32.67
55932;BME280;41837;55.700;37.984;2023-06-14T07:34:48;100376.81;;;24.30;32.58
55932;BME280;41837;55.700;37.984;2023-06-14T07:37:14;100378.38;;;24.91;32.91
55932;BME280;41837;55.700;37.984;2023-06-14T07:39:40;100379.06;;;24.05;33.30
55932;BME280;41837;55.700;37.984;2023-06-14T07:42:07;100385.25;;;25.50;31.28
55932;BME280;41837;55.700;37.984;2023-06-14T07:44:59;100381.78;;;24.64;32.07
55932;BME280;41837;55.700;37.984;2023-06-14T07:47:28;100375.22;;;25.90;31.58
55932;BME280;41837;55.700;37.984;2023-06-14T07:49:53;100368.81;;;25.45;31.94
55932;BME280;41837;55.700;37.984;2023-06-14T07:52:20;100378.03;;;25.13;32.23
55932;BME280;41837;55.700;37.984;2023-06-14T07:54:47;100370.47;;;24.99;31.18
55932;BME280;41837;55.700;37.984;2023-06-14T07:57:13;100369.31;;;25.11;31.11
55932;BME280;41837;55.700;37.984;2023-06-14T07:59:40;100364.81;;;25.12;31.34
55932;BME280;41837;55.700;37.984;2023-06-14T08:02:07;100367.78;;;24.01;32.89
55932;BME280;41837;55.700;37.984;2023-06-14T08:04:32;100368.69;;;24.41;33.40
55932;BME280;41837;55.700;37.984;2023-06-14T08:06:59;100376.28;;;24.55;32.92
55932;BME280;41837;55.700;37.984;2023-06-14T08:09:27;100366.56;;;24.25;34.02
55932;BME280;41837;55.700;37.984;2023-06-14T08:11:55;100372.03;;;24.14;34.29
55932;BME280;41837;55.700;37.984;2023-06-14T08:14:21;100366.38;;;23.97;33.28
55932;BME280;41837;55.700;37.984;2023-06-14T08:16:48;100364.91;;;24.34;32.66
55932;BME280;41837;55.700;37.984;2023-06-14T08:19:14;100372.41;;;23.49;33.46
55932;BME280;41837;55.700;37.984;2023-06-14T08:22:05;100369.25;;;23.75;34.65
55932;BME280;41837;55.700;37.984;2023-06-14T08:24:31;100376.75;;;23.50;32.87
55932;BME280;41837;55.700;37.984;2023-06-14T08:26:58;100372.97;;;23.01;34.07
55932;BME280;41837;55.700;37.984;2023-06-14T08:29:26;100367.50;;;23.23;34.50
55932;BME280;41837;55.700;37.984;2023-06-14T08:31:55;100367.69;;;22.47;34.66
55932;BME280;41837;55.700;37.984;2023-06-14T08:34:21;100356.84;;;23.02;34.72
55932;BME280;41837;55.700;37.984;2023-06-14T08:36:52;100361.53;;;22.89;34.67
55932;BME280;41837;55.700;37.984;2023-06-14T08:39:18;100368.16;;;22.95;34.80
55932;BME280;41837;55.700;37.984;2023-06-14T08:41:46;100359.03;;;23.18;34.70
55932;BME280;41837;55.700;37.984;2023-06-14T08:44:15;100358.69;;;23.63;34.65
55932;BME280;41837;55.700;37.984;2023-06-14T08:46:43;100352.69;;;22.88;34.88
55932;BME280;41837;55.700;37.984;2023-06-14T08:49:12;100361.56;;;23.41;33.17
55932;BME280;41837;55.700;37.984;2023-06-14T08:51:38;100351.94;;;23.28;34.56
55932;BME280;41837;55.700;37.984;2023-06-14T08:54:06;100363.41;;;23.50;33.98
55932;BME280;41837;55.700;37.984;2023-06-14T08:56:33;100358.06;;;23.50;34.88
55932;BME280;41837;55.700;37.984;2023-06-14T08:59:00;100352.88;;;23.89;33.93
55932;BME280;41837;55.700;37.984;2023-06-14T09:01:35;100343.06;;;23.59;33.33
55932;BME280;41837;55.700;37.984;2023-06-14T09:04:03;100345.63;;;23.30;35.67
55932;BME280;41837;55.700;37.984;2023-06-14T09:06:31;100341.19;;;23.40;33.87
55932;BME280;41837;55.700;37.984;2023-06-14T09:08:59;100341.13;;;23.30;34.25
55932;BME280;41837;55.700;37.984;2023-06-14T09:11:25;100332.25;;;23.20;33.96
55932;BME280;41837;55.700;37.984;2023-06-14T09:13:52;100338.50;;;23.40;33.50
55932;BME280;41837;55.700;37.984;2023-06-14T09:16:18;100332.34;;;23.39;33.00
55932;BME280;41837;55.700;37.984;2023-06-14T09:18:46;100329.84;;;23.88;34.90
55932;BME280;41837;55.700;37.984;2023-06-14T09:21:17;100329.59;;;23.51;33.69
55932;BME280;41837;55.700;37.984;2023-06-14T09:23:45;100328.34;;;23.24;33.63
55932;BME280;41837;55.700;37.984;2023-06-14T09:26:15;100321.34;;;23.33;33.08
55932;BME280;41837;55.700;37.984;2023-06-14T09:28:55;100323.00;;;23.24;34.75
55932;BME280;41837;55.700;37.984;2023-06-14T09:31:22;100327.84;;;23.09;32.56
55932;BME280;41837;55.700;37.984;2023-06-14T09:33:49;100324.25;;;23.20;33.32
55932;BME280;41837;55.700;37.984;2023-06-14T09:36:22;100313.88;;;23.26;33.35
55932;BME280;41837;55.700;37.984;2023-06-14T09:39:03;100323.28;;;23.61;33.62
55932;BME280;41837;55.700;37.984;2023-06-14T09:41:49;100313.84;;;23.57;33.60
55932;BME280;41837;55.700;37.984;2023-06-14T09:44:16;100316.97;;;23.72;34.32
55932;BME280;41837;55.700;37.984;2023-06-14T09:46:44;100315.72;;;23.67;32.09
55932;BME280;41837;55.700;37.984;2023-06-14T09:49:10;100310.88;;;24.11;32.59
55932;BME280;41837;55.700;37.984;2023-06-14T09:51:43;100303.00;;;24.09;31.40
55932;BME280;41837;55.700;37.984;2023-06-14T09:54:15;100295.59;;;23.62;32.54
55932;BME280;41837;55.700;37.984;2023-06-14T09:56:45;100303.03;;;23.49;33.40
55932;BME280;41837;55.700;37.984;2023-06-14T09:59:12;100296.66;;;23.91;33.83
55932;BME280;41837;55.700;37.984;2023-06-14T10:01:43;100295.47;;;23.74;32.49
55932;BME280;41837;55.700;37.984;2023-06-14T10:04:10;100290.88;;;23.35;33.91
55932;BME280;41837;55.700;37.984;2023-06-14T10:06:40;100296.56;;;23.11;32.43
55932;BME280;41837;55.700;37.984;2023-06-14T10:09:09;100291.63;;;23.06;33.70
55932;BME280;41837;55.700;37.984;2023-06-14T10:11:38;100283.94;;;23.63;33.43
55932;BME280;41837;55.700;37.984;2023-06-14T10:14:12;100279.94;;;24.28;33.19
55932;BME280;41837;55.700;37.984;2023-06-14T10:16:56;100283.72;;;24.35;33.60
55932;BME280;41837;55.700;37.984;2023-06-14T10:19:37;100276.63;;;23.46;32.97
55932;BME280;41837;55.700;37.984;2023-06-14T10:22:23;100282.09;;;23.44;33.52
55932;BME280;41837;55.700;37.984;2023-06-14T10:24:52;100270.34;;;23.76;32.64
55932;BME280;41837;55.700;37.984;2023-06-14T10:27:18;100274.56;;;23.79;34.02
55932;BME280;41837;55.700;37.984;2023-06-14T10:32:18;100276.53;;;23.77;31.73
55932;BME280;41837;55.700;37.984;2023-06-14T10:34:45;100268.22;;;23.70;32.88
55932;BME280;41837;55.700;37.984;2023-06-14T10:37:13;100282.88;;;24.15;31.89
55932;BME280;41837;55.700;37.984;2023-06-14T10:39:42;100257.59;;;24.29;31.33
55932;BME280;41837;55.700;37.984;2023-06-14T10:42:08;100269.81;;;24.21;32.43
55932;BME280;41837;55.700;37.984;2023-06-14T10:44:42;100272.63;;;24.20;32.36
55932;BME280;41837;55.700;37.984;2023-06-14T10:47:32;100268.91;;;23.62;33.81
55932;BME280;41837;55.700;37.984;2023-06-14T10:50:11;100266.44;;;23.20;33.40
55932;BME280;41837;55.700;37.984;2023-06-14T10:52:41;100265.59;;;23.30;33.95
55932;BME280;41837;55.700;37.984;2023-06-14T10:55:14;100258.31;;;23.92;33.04
55932;BME280;41837;55.700;37.984;2023-06-14T10:57:44;100267.91;;;23.54;33.56
55932;BME280;41837;55.700;37.984;2023-06-14T11:00:13;100255.72;;;23.80;33.18
55932;BME280;41837;55.700;37.984;2023-06-14T11:05:52;100254.06;;;24.38;32.93
55932;BME280;41837;55.700;37.984;2023-06-14T11:11:10;100252.41;;;23.88;33.32
55932;BME280;41837;55.700;37.984;2023-06-14T11:13:44;100245.03;;;23.71;33.52
55932;BME280;41837;55.700;37.984;2023-06-14T11:16:16;100253.25;;;23.98;33.11
55932;BME280;41837;55.700;37.984;2023-06-14T11:18:44;100240.19;;;24.05;32.21
55932;BME280;41837;55.700;37.984;2023-06-14T11:21:11;100237.06;;;24.10;32.77
55932;BME280;41837;55.700;37.984;2023-06-14T11:23:37;100235.31;;;23.50;33.77
55932;BME280;41837;55.700;37.984;2023-06-14T11:26:04;100243.22;;;23.71;32.68
55932;BME280;41837;55.700;37.984;2023-06-14T11:28:40;100232.25;;;23.55;33.32
55932;BME280;41837;55.700;37.984;2023-06-14T11:31:07;100231.41;;;23.64;33.75
55932;BME280;41837;55.700;37.984;2023-06-14T11:33:34;100241.72;;;24.08;32.67
55932;BME280;41837;55.700;37.984;2023-06-14T11:36:03;100232.72;;;23.89;32.94
55932;BME280;41837;55.700;37.984;2023-06-14T11:38:40;100224.13;;;23.66;33.31
55932;BME280;41837;55.700;37.984;2023-06-14T11:41:07;100231.69;;;23.80;33.97
55932;BME280;41837;55.700;37.984;2023-06-14T11:43:33;100221.41;;;23.46;33.99
55932;BME280;41837;55.700;37.984;2023-06-14T11:46:01;100210.91;;;23.55;34.03
55932;BME280;41837;55.700;37.984;2023-06-14T11:48:42;100214.88;;;23.99;34.78
55932;BME280;41837;55.700;37.984;2023-06-14T11:51:09;100223.69;;;23.80;33.65
55932;BME280;41837;55.700;37.984;2023-06-14T11:53:35;100221.31;;;23.68;34.29
55932;BME280;41837;55.700;37.984;2023-06-14T11:56:02;100214.16;;;23.68;33.52
55932;BME280;41837;55.700;37.984;2023-06-14T11:58:29;100225.84;;;23.87;33.88
55932;BME280;41837;55.700;37.984;2023-06-14T12:00:55;100214.16;;;23.88;32.77
55932;BME280;41837;55.700;37.984;2023-06-14T12:03:26;100199.94;;;24.16;33.85
55932;BME280;41837;55.700;37.984;2023-06-14T12:06:08;100204.59;;;24.14;34.07
55932;BME280;41837;55.700;37.984;2023-06-14T12:08:36;100196.59;;;24.05;33.74
55932;BME280;41837;55.700;37.984;2023-06-14T12:11:12;100206.16;;;24.17;34.75
55932;BME280;41837;55.700;37.984;2023-06-14T12:13:40;100196.72;;;24.03;32.91
55932;BME280;41837;55.700;37.984;2023-06-14T12:16:10;100196.88;;;24.01;33.83
55932;BME280;41837;55.700;37.984;2023-06-14T12:18:39;100190.56;;;23.93;33.36
55932;BME280;41837;55.700;37.984;2023-06-14T12:21:12;100194.31;;;23.71;34.04
55932;BME280;41837;55.700;37.984;2023-06-14T12:23:39;100176.38;;;23.73;34.11
55932;BME280;41837;55.700;37.984;2023-06-14T12:26:06;100174.13;;;23.78;34.13
55932;BME280;41837;55.700;37.984;2023-06-14T12:28:32;100162.28;;;23.71;33.90
55932;BME280;41837;55.700;37.984;2023-06-14T12:30:59;100164.53;;;24.05;34.14
55932;BME280;41837;55.700;37.984;2023-06-14T12:33:26;100174.94;;;23.59;33.88
55932;BME280;41837;55.700;37.984;2023-06-14T12:35:55;100176.78;;;23.78;33.66
55932;BME280;41837;55.700;37.984;2023-06-14T12:38:23;100177.19;;;23.73;34.16
55932;BME280;41837;55.700;37.984;2023-06-14T12:40:50;100168.22;;;23.94;33.55
55932;BME280;41837;55.700;37.984;2023-06-14T12:43:16;100174.94;;;23.39;33.54
55932;BME280;41837;55.700;37.984;2023-06-14T12:45:42;100179.28;;;23.60;32.48
55932;BME280;41837;55.700;37.984;2023-06-14T12:48:08;100171.59;;;23.96;33.00
55932;BME280;41837;55.700;37.984;2023-06-14T12:50:34;100168.63;;;23.99;32.36
55932;BME280;41837;55.700;37.984;2023-06-14T12:53:01;100171.44;;;23.97;32.72
55932;BME280;41837;55.700;37.984;2023-06-14T12:55:27;100171.03;;;24.12;33.63
55932;BME280;41837;55.700;37.984;2023-06-14T12:57:53;100170.16;;;24.11;33.85
55932;BME280;41837;55.700;37.984;2023-06-14T13:00:20;100169.50;;;23.90;33.72
55932;BME280;41837;55.700;37.984;2023-06-14T13:02:48;100159.75;;;24.18;32.68
55932;BME280;41837;55.700;37.984;2023-06-14T13:05:14;100156.63;;;24.32;32.99